createdAt,value
2023-03-26T00:00:56.686Z,73.86
2023-03-26T00:01:53.379Z,73.98
2023-03-26T00:02:50.014Z,73.99
2023-03-26T00:03:53.536Z,73.50
2023-03-26T00:04:51.157Z,73.78
2023-03-26T00:05:48.428Z,73.74
2023-03-26T00:06:48.956Z,74.16
2023-03-26T00:07:46.224Z,74.04
2023-03-26T00:08:45.231Z,73.61
2023-03-26T00:09:41.963Z,73.78
2023-03-26T00:10:40.225Z,74.20
2023-03-26T00:11:37.391Z,75.24
2023-03-26T00:12:34.161Z,75.69
2023-03-26T00:13:32.203Z,74.58
2023-03-26T00:14:30.057Z,73.60
2023-03-26T00:15:26.664Z,73.74
2023-03-26T00:16:25.108Z,73.96
2023-03-26T00:17:22.092Z,75.04
2023-03-26T00:18:21.532Z,74.82
2023-03-26T00:19:18.141Z,74.93
2023-03-26T00:20:14.832Z,75.66
2023-03-26T00:21:14.832Z,76.37
2023-03-26T00:22:13.656Z,76.31
2023-03-26T00:23:10.280Z,76.08
2023-03-26T00:24:16.322Z,76.58
2023-03-26T00:25:13.964Z,75.90
2023-03-26T00:26:11.274Z,76.30
2023-03-26T00:27:08.806Z,77.30
2023-03-26T00:28:07.812Z,77.28
2023-03-26T00:29:06.960Z,78.69
2023-03-26T00:30:05.168Z,78.76
2023-03-26T00:31:04.659Z,78.68
2023-03-26T00:32:01.855Z,78.43
2023-03-26T00:32:58.558Z,79.80
2023-03-26T00:33:55.859Z,79.80
2023-03-26T00:34:52.666Z,80.13
2023-03-26T00:35:54.767Z,80.00
2023-03-26T00:36:54.711Z,79.50
2023-03-26T00:37:51.573Z,80.73
2023-03-26T00:38:48.704Z,79.79
2023-03-26T00:39:49.201Z,80.19
2023-03-26T00:40:48.059Z,79.99
2023-03-26T00:41:45.025Z,80.93
2023-03-26T00:42:42.561Z,81.13
2023-03-26T00:43:39.253Z,81.26
2023-03-26T00:44:35.884Z,82.09
2023-03-26T00:45:32.683Z,82.22
2023-03-26T00:46:31.603Z,80.54
2023-03-26T00:47:29.276Z,80.69
2023-03-26T00:48:44.012Z,80.95
2023-03-26T00:49:41.448Z,81.92
2023-03-26T00:50:38.081Z,82.27
2023-03-26T00:51:35.087Z,82.78
2023-03-26T00:52:31.877Z,83.14
2023-03-26T00:53:28.475Z,83.41
2023-03-26T00:54:25.176Z,83.08
2023-03-26T00:55:23.469Z,82.45
2023-03-26T00:56:20.457Z,81.30
2023-03-26T00:57:28.905Z,81.17
2023-03-26T00:58:31.397Z,82.52
2023-03-26T00:59:30.364Z,82.46
2023-03-26T01:00:36.495Z,82.50
2023-03-26T01:01:33.340Z,82.79
2023-03-26T01:02:30.037Z,82.88
2023-03-26T01:03:33.821Z,83.67
2023-03-26T01:04:34.955Z,83.50
2023-03-26T01:05:34.626Z,84.05
2023-03-26T01:06:35.877Z,83.80
2023-03-26T01:07:35.241Z,83.80
2023-03-26T01:08:35.646Z,84.06
2023-03-26T01:09:36.537Z,84.02
2023-03-26T01:10:38.709Z,84.05
2023-03-26T01:11:35.961Z,84.74
2023-03-26T01:12:32.580Z,84.49
2023-03-26T01:13:33.145Z,85.03
2023-03-26T01:14:30.132Z,84.64
2023-03-26T01:15:29.940Z,84.63
2023-03-26T01:16:39.331Z,84.95
2023-03-26T01:17:37.951Z,84.44
2023-03-26T01:18:40.989Z,84.72
2023-03-26T01:20:15.217Z,85.03
2023-03-26T01:21:14.701Z,83.89
2023-03-26T01:22:15.513Z,84.67
2023-03-26T01:23:17.660Z,83.38
2023-03-26T01:24:14.351Z,84.46
2023-03-26T01:25:11.149Z,85.18
2023-03-26T01:26:32.709Z,84.95
2023-03-26T01:27:41.191Z,84.87
2023-03-26T01:28:41.374Z,85.16
2023-03-26T01:29:56.451Z,84.33
2023-03-26T01:31:29.841Z,84.38
2023-03-26T01:33:00.864Z,83.91
2023-03-26T01:34:12.430Z,84.11
2023-03-26T01:35:14.638Z,84.94
2023-03-26T01:36:42.614Z,86.16
2023-03-26T01:37:39.223Z,85.49
2023-03-26T01:39:01.599Z,85.70
2023-03-26T01:40:06.199Z,85.37
2023-03-26T01:41:14.399Z,85.10
2023-03-26T01:42:16.191Z,85.82
2023-03-26T01:43:40.346Z,86.78
2023-03-26T01:44:44.955Z,86.69
2023-03-26T01:45:46.210Z,86.15
2023-03-26T01:46:44.770Z,86.15
2023-03-26T01:47:43.613Z,86.34
2023-03-26T01:48:45.639Z,86.11
2023-03-26T01:49:42.301Z,86.40
2023-03-26T01:50:38.925Z,86.73
2023-03-26T01:51:36.289Z,86.48
2023-03-26T01:52:33.040Z,87.15
2023-03-26T01:53:30.285Z,87.23
2023-03-26T01:54:30.314Z,86.64
2023-03-26T01:55:56.295Z,87.26
2023-03-26T01:57:14.932Z,87.59
2023-03-26T01:58:30.141Z,88.26
2023-03-26T01:59:45.312Z,88.38
2023-03-26T02:00:54.913Z,87.79
2023-03-26T02:02:14.560Z,88.26
2023-03-26T02:03:38.060Z,89.12
2023-03-26T02:04:57.743Z,89.96
2023-03-26T02:06:06.333Z,90.25
2023-03-26T02:07:09.378Z,90.21
2023-03-26T02:08:35.415Z,90.64
2023-03-26T02:09:39.312Z,90.07
2023-03-26T02:10:41.723Z,89.91
2023-03-26T02:11:40.797Z,90.20
2023-03-26T02:12:37.910Z,90.28
2023-03-26T02:13:34.723Z,91.34
2023-03-26T02:14:31.413Z,91.56
2023-03-26T02:15:28.139Z,91.79
2023-03-26T02:16:24.833Z,92.11
2023-03-26T02:17:24.352Z,92.51
2023-03-26T02:18:24.338Z,92.87
2023-03-26T02:19:21.833Z,93.29
2023-03-26T02:20:20.207Z,93.22
2023-03-26T02:21:22.588Z,93.08
2023-03-26T02:22:19.258Z,93.16
2023-03-26T02:23:16.196Z,92.58
2023-03-26T02:24:12.852Z,92.66
2023-03-26T02:25:14.867Z,93.27
2023-03-26T02:26:11.728Z,93.28
2023-03-26T02:27:09.592Z,92.98
2023-03-26T02:28:06.403Z,91.42
2023-03-26T02:29:03.889Z,91.01
2023-03-26T02:30:01.093Z,91.86
2023-03-26T02:30:57.828Z,92.32
2023-03-26T02:31:54.573Z,92.57
2023-03-26T02:32:54.234Z,92.93
2023-03-26T02:33:51.106Z,93.42
2023-03-26T02:34:47.893Z,93.75
2023-03-26T02:35:45.989Z,94.04
2023-03-26T02:36:45.215Z,93.82
2023-03-26T02:37:42.245Z,94.21
2023-03-26T02:38:38.898Z,93.58
2023-03-26T02:39:36.373Z,94.23
2023-03-26T02:40:33.002Z,94.35
2023-03-26T02:41:29.797Z,95.21
2023-03-26T02:42:26.888Z,94.92
2023-03-26T02:43:23.721Z,94.69
2023-03-26T02:44:20.449Z,94.76
2023-03-26T02:45:17.289Z,95.11
2023-03-26T02:46:14.151Z,94.80
2023-03-26T02:47:10.855Z,94.97
2023-03-26T02:48:08.133Z,94.80
2023-03-26T02:49:04.775Z,94.38
2023-03-26T02:50:01.656Z,94.55
2023-03-26T02:50:58.528Z,95.24
2023-03-26T02:51:56.353Z,94.94
2023-03-26T02:52:53.460Z,95.55
2023-03-26T02:53:50.031Z,95.68
2023-03-26T02:54:47.054Z,95.61
2023-03-26T02:55:43.654Z,95.26
2023-03-26T02:56:40.386Z,94.97
2023-03-26T02:57:37.006Z,95.10
2023-03-26T02:58:33.736Z,95.17
2023-03-26T02:59:30.437Z,95.37
2023-03-26T03:00:27.080Z,94.51
2023-03-26T03:01:23.831Z,93.69
2023-03-26T03:02:20.665Z,92.94
2023-03-26T03:03:17.534Z,92.41
2023-03-26T03:04:14.215Z,93.05
2023-03-26T03:05:11.795Z,92.73
2023-03-26T03:06:09.107Z,92.42
2023-03-26T03:07:05.808Z,92.28
2023-03-26T03:08:03.470Z,91.98
2023-03-26T03:09:02.720Z,91.98
2023-03-26T03:10:02.406Z,91.93
2023-03-26T03:11:08.753Z,91.80
2023-03-26T03:12:05.875Z,92.96
2023-03-26T03:13:04.123Z,92.76
2023-03-26T03:14:00.806Z,92.14
2023-03-26T03:14:57.428Z,93.34
2023-03-26T03:15:55.046Z,93.87
2023-03-26T03:16:51.823Z,93.21
2023-03-26T03:17:48.518Z,93.22
2023-03-26T03:18:45.144Z,94.20
2023-03-26T03:19:41.735Z,93.84
2023-03-26T03:20:38.474Z,92.67
2023-03-26T03:21:35.104Z,92.39
2023-03-26T03:22:31.675Z,93.20
2023-03-26T03:23:28.787Z,93.31
2023-03-26T03:24:27.202Z,92.71
2023-03-26T03:25:26.174Z,92.13
2023-03-26T03:26:27.664Z,92.80
2023-03-26T03:27:26.137Z,92.73
2023-03-26T03:28:23.905Z,93.65
2023-03-26T03:29:20.541Z,93.94
2023-03-26T03:30:17.257Z,94.25
2023-03-26T03:31:13.884Z,94.21
2023-03-26T03:32:10.641Z,94.41
2023-03-26T03:33:07.319Z,93.86
2023-03-26T03:34:04.075Z,94.19
2023-03-26T03:35:00.826Z,93.34
2023-03-26T03:35:59.412Z,93.49
2023-03-26T03:36:56.346Z,93.62
2023-03-26T03:37:53.230Z,93.27
2023-03-26T03:38:50.794Z,93.20
2023-03-26T03:39:47.581Z,92.99
2023-03-26T03:40:44.369Z,93.31
2023-03-26T03:41:41.399Z,92.83
2023-03-26T03:42:38.371Z,92.34
2023-03-26T03:43:35.260Z,91.53
2023-03-26T03:44:31.951Z,90.85
2023-03-26T03:45:28.572Z,91.05
2023-03-26T03:46:25.448Z,90.35
2023-03-26T03:47:23.114Z,90.69
2023-03-26T03:48:19.977Z,90.78
2023-03-26T03:49:16.553Z,90.77
2023-03-26T03:50:13.154Z,90.21
2023-03-26T03:51:09.754Z,89.96
2023-03-26T03:52:06.875Z,90.70
2023-03-26T03:53:05.702Z,90.83
2023-03-26T03:54:03.944Z,90.77
2023-03-26T03:55:00.640Z,90.56
2023-03-26T03:55:57.642Z,89.80
2023-03-26T03:56:54.512Z,89.56
2023-03-26T03:57:52.626Z,88.15
2023-03-26T03:58:49.306Z,88.12
2023-03-26T03:59:47.973Z,88.05
2023-03-26T04:00:45.024Z,88.56
2023-03-26T04:01:46.837Z,89.33
2023-03-26T04:02:46.282Z,89.40
2023-03-26T04:03:46.531Z,90.06
2023-03-26T04:04:46.439Z,90.12
2023-03-26T04:05:49.500Z,90.65
2023-03-26T04:06:46.239Z,90.46
2023-03-26T04:07:43.429Z,90.67
2023-03-26T04:08:40.398Z,91.13
2023-03-26T04:09:36.991Z,91.52
2023-03-26T04:10:33.690Z,91.94
2023-03-26T04:11:30.312Z,92.73
2023-03-26T04:12:28.483Z,93.06
2023-03-26T04:13:25.341Z,92.83
2023-03-26T04:14:22.074Z,92.90
2023-03-26T04:15:18.682Z,92.79
2023-03-26T04:16:15.416Z,93.08
2023-03-26T04:17:13.673Z,93.09
2023-03-26T04:18:10.657Z,93.50
2023-03-26T04:19:08.577Z,93.43
2023-03-26T04:20:06.925Z,94.18
2023-03-26T04:21:05.321Z,93.91
2023-03-26T04:22:02.427Z,93.12
2023-03-26T04:22:59.210Z,93.74
2023-03-26T04:23:56.485Z,94.35
2023-03-26T04:24:54.549Z,94.91
2023-03-26T04:25:54.641Z,94.71
2023-03-26T04:26:51.700Z,94.27
2023-03-26T04:27:48.803Z,94.02
2023-03-26T04:28:53.371Z,94.18
2023-03-26T04:29:50.676Z,94.19
2023-03-26T04:30:48.913Z,94.09
2023-03-26T04:31:47.196Z,94.58
2023-03-26T04:32:45.028Z,94.18
2023-03-26T04:33:46.940Z,94.82
2023-03-26T04:34:46.187Z,94.39
2023-03-26T04:35:44.783Z,94.61
2023-03-26T04:36:46.328Z,94.04
2023-03-26T04:37:44.499Z,94.14
2023-03-26T04:38:43.912Z,94.21
2023-03-26T04:39:40.494Z,94.48
2023-03-26T04:40:39.099Z,93.92
2023-03-26T04:41:35.854Z,94.67
2023-03-26T04:42:33.400Z,94.15
2023-03-26T04:43:31.206Z,93.43
2023-03-26T04:44:30.501Z,93.49
2023-03-26T04:45:27.532Z,93.11
2023-03-26T04:46:24.268Z,92.74
2023-03-26T04:47:21.156Z,92.97
2023-03-26T04:48:17.731Z,92.67
2023-03-26T04:49:14.652Z,92.72
2023-03-26T04:50:11.807Z,92.32
2023-03-26T04:51:09.927Z,91.27
2023-03-26T04:52:06.825Z,91.42
2023-03-26T04:53:04.798Z,91.18
2023-03-26T04:54:02.733Z,91.54
2023-03-26T04:55:00.354Z,92.21
2023-03-26T04:56:02.033Z,92.37
2023-03-26T04:57:06.110Z,91.26
2023-03-26T04:58:05.640Z,91.06
2023-03-26T04:59:03.033Z,90.76
2023-03-26T04:59:59.685Z,90.98
2023-03-26T05:00:57.427Z,91.21
2023-03-26T05:01:54.266Z,91.37
2023-03-26T05:02:51.193Z,90.29
2023-03-26T05:03:47.911Z,90.37
2023-03-26T05:04:49.948Z,90.14
2023-03-26T05:05:46.887Z,90.53
2023-03-26T05:06:43.597Z,89.68
2023-03-26T05:07:41.822Z,90.03
2023-03-26T05:08:38.514Z,89.55
2023-03-26T05:09:35.148Z,89.24
2023-03-26T05:10:31.884Z,88.79
2023-03-26T05:11:28.543Z,88.30
2023-03-26T05:12:25.506Z,88.70
2023-03-26T05:13:23.496Z,87.48
2023-03-26T05:14:20.740Z,87.92
2023-03-26T05:15:17.503Z,88.07
2023-03-26T05:16:14.190Z,88.19
2023-03-26T05:17:15.320Z,87.60
2023-03-26T05:18:11.994Z,87.45
2023-03-26T05:19:09.035Z,88.27
2023-03-26T05:20:06.201Z,88.34
2023-03-26T05:21:03.296Z,88.01
2023-03-26T05:21:59.954Z,88.03
2023-03-26T05:22:56.953Z,87.68
2023-03-26T05:23:53.569Z,87.88
2023-03-26T05:24:50.120Z,86.37
2023-03-26T05:25:47.236Z,86.56
2023-03-26T05:26:43.898Z,86.44
2023-03-26T05:27:40.528Z,85.63
2023-03-26T05:28:37.284Z,86.30
2023-03-26T05:29:33.894Z,87.08
2023-03-26T05:30:30.709Z,86.66
2023-03-26T05:31:28.073Z,86.27
2023-03-26T05:32:24.700Z,86.29
2023-03-26T05:33:22.572Z,85.70
2023-03-26T05:34:20.723Z,84.61
2023-03-26T05:35:18.479Z,84.37
2023-03-26T05:36:16.347Z,83.97
2023-03-26T05:37:13.761Z,84.31
2023-03-26T05:38:10.900Z,82.35
2023-03-26T05:39:08.644Z,82.52
2023-03-26T05:40:11.796Z,82.26
2023-03-26T05:41:10.493Z,82.93
2023-03-26T05:42:07.916Z,83.33
2023-03-26T05:43:04.765Z,82.88
2023-03-26T05:44:01.454Z,82.69
2023-03-26T05:44:58.065Z,83.45
2023-03-26T05:45:54.719Z,83.04
2023-03-26T05:46:51.482Z,83.26
2023-03-26T05:47:49.773Z,82.91
2023-03-26T05:48:46.713Z,83.17
2023-03-26T05:49:43.284Z,83.53
2023-03-26T05:50:39.869Z,82.29
2023-03-26T05:51:36.550Z,82.19
2023-03-26T05:52:33.233Z,81.94
2023-03-26T05:53:30.475Z,81.49
2023-03-26T05:54:27.302Z,81.43
2023-03-26T05:55:23.936Z,79.84
2023-03-26T05:56:20.739Z,80.89
2023-03-26T05:57:18.592Z,80.54
2023-03-26T05:58:15.542Z,79.18
2023-03-26T05:59:12.133Z,78.26
2023-03-26T06:00:10.992Z,79.68
2023-03-26T06:01:17.052Z,79.51
2023-03-26T06:02:13.790Z,79.02
2023-03-26T06:03:12.727Z,77.63
2023-03-26T06:04:11.675Z,78.25
2023-03-26T06:05:10.014Z,78.11
2023-03-26T06:06:09.263Z,77.48
2023-03-26T06:07:10.092Z,77.66
2023-03-26T06:08:07.285Z,78.95
2023-03-26T06:09:04.550Z,78.39
2023-03-26T06:10:01.787Z,76.99
2023-03-26T06:11:08.070Z,76.49
2023-03-26T06:12:06.239Z,77.01
2023-03-26T06:13:04.339Z,75.80
2023-03-26T06:14:01.164Z,75.64
2023-03-26T06:14:57.801Z,74.92
2023-03-26T06:15:54.503Z,74.49
2023-03-26T06:16:51.126Z,75.37
2023-03-26T06:17:48.202Z,76.65
2023-03-26T06:18:45.177Z,77.74
2023-03-26T06:19:41.803Z,76.89
2023-03-26T06:20:40.781Z,75.63
2023-03-26T06:21:37.374Z,75.75
2023-03-26T06:22:33.950Z,76.23
2023-03-26T06:23:30.875Z,75.50
2023-03-26T06:24:27.561Z,75.68
2023-03-26T06:25:24.163Z,76.22
2023-03-26T06:26:21.507Z,77.75
2023-03-26T06:27:18.152Z,78.01
2023-03-26T06:28:15.950Z,77.11
2023-03-26T06:29:16.179Z,76.42
2023-03-26T06:30:13.028Z,75.99
2023-03-26T06:31:09.770Z,75.66
2023-03-26T06:32:18.470Z,75.19
2023-03-26T06:33:16.584Z,74.27
2023-03-26T06:34:13.276Z,74.76
2023-03-26T06:35:11.199Z,74.44
2023-03-26T06:36:08.325Z,73.44
2023-03-26T06:37:04.961Z,74.89
2023-03-26T06:38:02.897Z,75.50
2023-03-26T06:38:59.584Z,76.35
2023-03-26T06:39:56.302Z,76.48
2023-03-26T06:40:53.243Z,76.06
2023-03-26T06:41:50.001Z,76.67
2023-03-26T06:43:07.907Z,76.60
2023-03-26T06:44:03.418Z,75.36
2023-03-26T06:45:00.059Z,75.07
2023-03-26T06:45:56.974Z,74.26
2023-03-26T06:46:53.655Z,73.24
2023-03-26T06:47:50.296Z,72.52
2023-03-26T06:48:46.938Z,72.44
2023-03-26T06:49:45.359Z,71.70
2023-03-26T06:50:42.153Z,72.05
2023-03-26T06:51:40.714Z,71.06
2023-03-26T06:52:37.794Z,71.74
2023-03-26T06:53:34.505Z,71.49
2023-03-26T06:54:31.322Z,71.11
2023-03-26T06:55:28.728Z,71.04
2023-03-26T06:56:25.407Z,70.66
2023-03-26T06:57:22.281Z,69.20
2023-03-26T06:58:18.921Z,69.21
2023-03-26T06:59:15.507Z,69.34
2023-03-26T07:00:13.591Z,68.72
2023-03-26T07:01:10.476Z,67.94
2023-03-26T07:02:07.579Z,68.24
2023-03-26T07:03:05.631Z,67.79
2023-03-26T07:04:02.276Z,67.76
2023-03-26T07:04:59.394Z,68.14
2023-03-26T07:05:56.120Z,66.01
2023-03-26T07:06:52.709Z,66.83
2023-03-26T07:07:49.339Z,66.77
2023-03-26T07:08:46.052Z,66.40
2023-03-26T07:09:42.572Z,64.73
2023-03-26T07:10:39.330Z,65.44
2023-03-26T07:11:35.915Z,66.12
2023-03-26T07:12:32.548Z,65.79
2023-03-26T07:13:29.126Z,65.93
2023-03-26T07:14:27.955Z,65.38
2023-03-26T07:15:24.769Z,65.90
2023-03-26T07:16:22.492Z,63.96
2023-03-26T07:17:19.148Z,65.73
2023-03-26T07:18:15.977Z,65.81
2023-03-26T07:19:12.534Z,66.04
2023-03-26T07:20:10.765Z,66.46
2023-03-26T07:21:07.965Z,65.17
2023-03-26T07:22:04.955Z,64.01
2023-03-26T07:23:01.930Z,64.55
2023-03-26T07:23:58.871Z,63.97
2023-03-26T07:24:55.965Z,62.52
2023-03-26T07:25:52.934Z,62.32
2023-03-26T07:27:06.658Z,61.16
2023-03-26T07:28:24.353Z,61.45
2023-03-26T07:29:26.631Z,61.89
2023-03-26T07:30:51.194Z,61.39
2023-03-26T07:32:03.817Z,61.72
2023-03-26T07:33:05.853Z,61.91
2023-03-26T07:34:26.340Z,60.99
2023-03-26T07:35:29.904Z,61.05
2023-03-26T07:36:48.392Z,61.95
2023-03-26T07:37:54.134Z,59.81
2023-03-26T07:38:50.814Z,60.34
2023-03-26T07:40:19.017Z,62.60
2023-03-26T07:41:31.963Z,63.71
2023-03-26T07:42:31.819Z,64.99
2023-03-26T07:43:56.048Z,65.11
2023-03-26T07:45:03.377Z,65.04
2023-03-26T07:46:01.123Z,63.39
2023-03-26T07:47:02.271Z,64.21
2023-03-26T07:47:59.126Z,63.56
2023-03-26T07:48:58.296Z,63.51
2023-03-26T07:49:57.860Z,63.61
2023-03-26T07:50:56.340Z,62.85
2023-03-26T07:51:53.407Z,62.29
2023-03-26T07:52:50.459Z,62.94
2023-03-26T07:53:47.341Z,62.69
2023-03-26T07:54:44.330Z,62.83
2023-03-26T07:55:52.922Z,63.15
2023-03-26T07:56:59.129Z,62.50
2023-03-26T07:58:21.240Z,62.18
2023-03-26T07:59:29.482Z,60.30
2023-03-26T08:00:38.645Z,59.76
2023-03-26T08:01:41.333Z,60.15
2023-03-26T08:02:38.019Z,59.22
2023-03-26T08:03:52.638Z,58.71
2023-03-26T08:05:04.319Z,57.35
2023-03-26T08:06:10.413Z,58.10
2023-03-26T08:07:28.819Z,56.61
2023-03-26T08:08:47.459Z,55.87
2023-03-26T08:09:46.911Z,56.71
2023-03-26T08:10:49.340Z,57.31
2023-03-26T08:11:54.541Z,58.74
2023-03-26T08:13:06.743Z,56.97
2023-03-26T08:14:22.729Z,57.07
2023-03-26T08:15:25.787Z,56.68
2023-03-26T08:16:30.625Z,56.77
2023-03-26T08:17:34.612Z,57.20
2023-03-26T08:18:44.801Z,55.31
2023-03-26T08:20:20.475Z,55.72
2023-03-26T08:21:26.419Z,55.87
2023-03-26T08:22:36.802Z,55.13
2023-03-26T08:23:36.392Z,55.73
2023-03-26T08:25:01.510Z,54.54
2023-03-26T08:26:19.770Z,53.67
2023-03-26T08:27:37.788Z,53.28
2023-03-26T08:29:04.276Z,53.30
2023-03-26T08:30:18.944Z,52.99
2023-03-26T08:31:18.044Z,53.61
2023-03-26T08:32:17.458Z,53.36
2023-03-26T08:33:21.524Z,54.73
2023-03-26T08:34:18.152Z,53.91
2023-03-26T08:35:15.835Z,53.12
2023-03-26T08:36:12.528Z,50.88
2023-03-26T08:37:09.892Z,51.22
2023-03-26T08:38:06.501Z,51.75
2023-03-26T08:39:04.161Z,52.03
2023-03-26T08:40:00.831Z,52.25
2023-03-26T08:41:06.520Z,51.19
2023-03-26T08:42:24.169Z,49.05
2023-03-26T08:43:29.744Z,49.61
2023-03-26T08:44:38.427Z,51.44
2023-03-26T08:45:52.466Z,50.23
2023-03-26T08:47:27.474Z,50.07
2023-03-26T08:48:42.968Z,51.04
2023-03-26T08:50:16.976Z,50.34
2023-03-26T08:51:13.621Z,50.34
2023-03-26T08:52:38.263Z,50.04
2023-03-26T08:54:19.672Z,48.84
2023-03-26T08:55:22.204Z,48.90
2023-03-26T08:56:18.702Z,48.56
2023-03-26T08:57:27.824Z,49.03
2023-03-26T08:58:36.530Z,49.54
2023-03-26T09:00:12.451Z,50.40
2023-03-26T09:01:27.157Z,49.67
2023-03-26T09:02:26.777Z,49.11
2023-03-26T09:03:27.898Z,49.63
2023-03-26T09:04:42.667Z,50.98
2023-03-26T09:06:03.138Z,51.06
2023-03-26T09:07:09.927Z,50.09
2023-03-26T09:08:21.032Z,49.69
2023-03-26T09:09:35.797Z,51.02
2023-03-26T09:10:53.466Z,50.53
2023-03-26T09:11:56.439Z,48.22
2023-03-26T09:13:15.347Z,47.72
2023-03-26T09:14:48.284Z,49.70
2023-03-26T09:15:54.067Z,50.10
2023-03-26T09:17:18.356Z,50.11
2023-03-26T09:18:37.154Z,50.12
2023-03-26T09:20:15.464Z,49.65
2023-03-26T09:21:32.214Z,49.82
2023-03-26T09:23:02.934Z,50.90
2023-03-26T09:23:59.622Z,50.64
2023-03-26T09:25:25.277Z,49.09
2023-03-26T09:26:25.046Z,50.90
2023-03-26T09:27:39.692Z,50.39
2023-03-26T09:29:00.873Z,47.82
2023-03-26T09:30:12.655Z,49.31
2023-03-26T09:31:46.250Z,47.58
2023-03-26T09:33:09.842Z,47.61
2023-03-26T09:34:32.238Z,48.44
2023-03-26T09:35:38.011Z,47.62
2023-03-26T09:36:46.509Z,47.95
2023-03-26T09:37:59.511Z,48.17
2023-03-26T09:39:03.185Z,49.78
2023-03-26T09:40:19.227Z,47.08
2023-03-26T09:41:19.605Z,48.43
2023-03-26T09:42:24.373Z,47.00
2023-03-26T09:43:24.165Z,47.50
2023-03-26T09:45:10.534Z,45.91
2023-03-26T09:46:16.287Z,45.94
2023-03-26T09:47:31.846Z,45.88
2023-03-26T09:49:04.922Z,46.84
2023-03-26T09:50:27.278Z,44.78
2023-03-26T09:51:36.907Z,45.23
2023-03-26T09:53:01.300Z,44.25
2023-03-26T09:54:28.606Z,46.62
2023-03-26T09:55:31.160Z,46.51
2023-03-26T09:56:27.661Z,46.07
2023-03-26T09:57:27.074Z,45.59
2023-03-26T09:58:32.460Z,46.56
2023-03-26T09:59:41.262Z,46.95
2023-03-26T10:00:49.992Z,46.18
2023-03-26T10:02:05.611Z,45.77
2023-03-26T10:03:11.180Z,48.43
2023-03-26T10:04:26.951Z,47.62
2023-03-26T10:05:34.433Z,46.52
2023-03-26T10:06:41.488Z,46.26
2023-03-26T10:07:40.642Z,44.81
2023-03-26T10:08:49.209Z,44.86
2023-03-26T10:10:00.982Z,44.63
2023-03-26T10:11:07.892Z,44.61
2023-03-26T10:12:31.541Z,44.57
2023-03-26T10:13:50.437Z,44.40
2023-03-26T10:15:08.905Z,44.70
2023-03-26T10:16:21.428Z,44.03
2023-03-26T10:17:48.678Z,43.09
2023-03-26T10:19:04.520Z,42.65
2023-03-26T10:20:28.809Z,42.28
2023-03-26T10:21:48.646Z,42.37
2023-03-26T10:23:13.176Z,43.00
2023-03-26T10:24:12.444Z,43.05
2023-03-26T10:25:21.124Z,42.40
2023-03-26T10:26:29.276Z,41.04
2023-03-26T10:27:42.457Z,41.87
2023-03-26T10:28:46.919Z,41.40
2023-03-26T10:30:12.666Z,41.79
2023-03-26T10:31:39.277Z,41.00
2023-03-26T10:32:43.309Z,40.64
2023-03-26T10:34:06.391Z,41.10
2023-03-26T10:35:21.338Z,42.93
2023-03-26T10:36:25.842Z,41.43
2023-03-26T10:37:48.502Z,42.08
2023-03-26T10:39:37.216Z,43.04
2023-03-26T10:41:07.990Z,42.20
2023-03-26T10:42:19.848Z,41.71
2023-03-26T10:44:08.765Z,41.02
2023-03-26T10:45:11.695Z,41.24
2023-03-26T10:46:08.280Z,40.55
2023-03-26T10:47:39.083Z,40.49
2023-03-26T10:49:09.675Z,40.16
2023-03-26T10:50:23.131Z,40.59
2023-03-26T10:51:20.763Z,40.10
2023-03-26T10:52:27.259Z,38.36
2023-03-26T10:53:47.195Z,37.76
2023-03-26T10:55:14.622Z,37.43
2023-03-26T10:56:21.954Z,37.98
2023-03-26T10:57:53.887Z,38.00
2023-03-26T10:58:50.689Z,39.08
2023-03-26T10:59:47.433Z,39.10
2023-03-26T11:00:55.668Z,39.21
2023-03-26T11:02:20.690Z,39.19
2023-03-26T11:03:52.626Z,39.71
2023-03-26T11:04:49.221Z,38.48
2023-03-26T11:06:04.366Z,37.61
2023-03-26T11:07:16.431Z,36.74
2023-03-26T11:08:43.748Z,35.87
2023-03-26T11:09:54.080Z,38.31
2023-03-26T11:11:03.973Z,37.82
2023-03-26T11:12:27.888Z,36.98
2023-03-26T11:13:54.379Z,36.30
2023-03-26T11:15:02.485Z,36.98
2023-03-26T11:16:04.736Z,35.73
2023-03-26T11:17:14.812Z,35.96
2023-03-26T11:18:42.093Z,37.44
2023-03-26T11:19:54.860Z,35.37
2023-03-26T11:21:20.457Z,35.19
2023-03-26T11:22:32.518Z,35.19
2023-03-26T11:23:34.950Z,36.55
2023-03-26T11:24:46.542Z,35.48
2023-03-26T11:25:57.893Z,36.64
2023-03-26T11:26:56.838Z,35.27
2023-03-26T11:27:53.442Z,35.10
2023-03-26T11:29:31.664Z,35.72
2023-03-26T11:30:32.493Z,35.52
2023-03-26T11:31:32.022Z,35.81
2023-03-26T11:32:42.654Z,35.02
2023-03-26T11:33:47.407Z,35.93
2023-03-26T11:35:06.260Z,35.96
2023-03-26T11:36:08.910Z,35.53
2023-03-26T11:37:08.670Z,35.46
2023-03-26T11:38:39.397Z,37.31
2023-03-26T11:39:49.805Z,35.22
2023-03-26T11:40:51.045Z,35.59
2023-03-26T11:41:52.755Z,34.61
2023-03-26T11:42:54.479Z,35.38
2023-03-26T11:44:16.850Z,35.01
2023-03-26T11:45:24.196Z,35.28
2023-03-26T11:46:25.120Z,35.44
2023-03-26T11:47:30.987Z,34.73
2023-03-26T11:48:27.870Z,35.12
2023-03-26T11:49:26.362Z,35.27
2023-03-26T11:50:30.561Z,34.92
2023-03-26T11:51:27.615Z,35.29
2023-03-26T11:52:26.704Z,36.16
2023-03-26T11:53:29.250Z,35.82
2023-03-26T11:54:25.729Z,35.23
2023-03-26T11:55:24.271Z,36.02
2023-03-26T11:57:05.888Z,35.14
2023-03-26T11:58:06.028Z,34.99
2023-03-26T11:59:21.817Z,35.15
2023-03-26T12:00:23.026Z,34.74
2023-03-26T12:01:44.312Z,35.19
2023-03-26T12:02:41.856Z,34.70
2023-03-26T12:03:40.525Z,34.89
2023-03-26T12:04:45.788Z,34.83
2023-03-26T12:05:51.952Z,34.42
2023-03-26T12:07:05.187Z,35.37
2023-03-26T12:08:19.700Z,35.11
2023-03-26T12:09:18.673Z,33.97
2023-03-26T12:10:23.216Z,35.82
2023-03-26T12:11:27.293Z,35.06
2023-03-26T12:12:34.095Z,34.91
2023-03-26T12:13:37.373Z,34.81
2023-03-26T12:14:35.538Z,35.91
2023-03-26T12:15:32.361Z,34.44
2023-03-26T12:16:29.484Z,34.83
2023-03-26T12:17:37.349Z,35.42
2023-03-26T12:18:34.334Z,35.38
2023-03-26T12:19:38.259Z,34.88
2023-03-26T12:20:36.867Z,35.81
2023-03-26T12:21:48.499Z,35.03
2023-03-26T12:22:47.893Z,35.12
2023-03-26T12:23:54.021Z,35.40
2023-03-26T12:25:21.290Z,34.41
2023-03-26T12:26:21.052Z,35.64
2023-03-26T12:27:37.990Z,34.39
2023-03-26T12:28:34.647Z,35.30
2023-03-26T12:29:34.492Z,35.81
2023-03-26T12:30:39.644Z,34.25
2023-03-26T12:31:49.364Z,34.60
2023-03-26T12:32:47.322Z,35.03
2023-03-26T12:33:45.254Z,34.00
2023-03-26T12:34:42.100Z,35.17
2023-03-26T12:35:38.974Z,35.12
2023-03-26T12:36:36.574Z,33.76
2023-03-26T12:37:43.333Z,33.82
2023-03-26T12:38:42.550Z,33.74
2023-03-26T12:40:09.299Z,33.98
2023-03-26T12:42:36.595Z,33.57
2023-03-26T12:44:47.003Z,33.37
2023-03-26T12:44:49.665Z,33.31
2023-03-26T12:45:13.877Z,33.07
2023-03-26T12:47:57.771Z,33.52
2023-03-26T12:48:01.872Z,33.17
2023-03-26T12:49:06.457Z,32.72
2023-03-26T12:50:03.788Z,33.16
2023-03-26T12:51:18.342Z,33.13
2023-03-26T12:52:33.308Z,33.08
2023-03-26T12:53:39.656Z,32.70
2023-03-26T12:54:57.075Z,31.96
2023-03-26T12:55:53.704Z,32.44
2023-03-26T12:57:12.601Z,33.78
2023-03-26T12:58:30.989Z,32.43
2023-03-26T13:00:01.755Z,31.91
2023-03-26T13:00:58.688Z,30.86
2023-03-26T13:02:16.427Z,31.78
2023-03-26T13:03:27.962Z,31.21
2023-03-26T13:05:07.110Z,32.33
2023-03-26T13:06:06.782Z,32.10
2023-03-26T13:07:25.066Z,31.63
2023-03-26T13:08:52.360Z,30.89
2023-03-26T13:10:08.626Z,32.26
2023-03-26T13:11:11.309Z,31.76
2023-03-26T13:12:23.194Z,31.83
2023-03-26T13:13:47.858Z,31.20
2023-03-26T13:15:03.407Z,31.59
2023-03-26T13:16:07.763Z,32.14
2023-03-26T13:17:48.095Z,31.35
2023-03-26T13:18:50.814Z,31.39
2023-03-26T13:20:12.456Z,31.53
2023-03-26T13:21:19.039Z,30.84
2023-03-26T13:22:28.452Z,31.71
2023-03-26T13:23:41.219Z,30.36
2023-03-26T13:24:43.376Z,30.77
2023-03-26T13:26:03.221Z,31.10
2023-03-26T13:27:18.345Z,31.77
2023-03-26T13:28:33.633Z,32.12
2023-03-26T13:29:56.864Z,30.91
2023-03-26T13:30:59.163Z,31.39
2023-03-26T13:32:31.096Z,31.22
2023-03-26T13:33:27.811Z,31.75
2023-03-26T13:34:31.160Z,31.80
2023-03-26T13:35:40.135Z,30.48
2023-03-26T13:37:12.824Z,30.12
2023-03-26T13:38:21.106Z,31.22
2023-03-26T13:39:36.790Z,30.29
2023-03-26T13:41:04.336Z,30.09
2023-03-26T13:42:07.283Z,30.38
2023-03-26T13:43:28.704Z,29.15
2023-03-26T13:44:28.279Z,29.94
2023-03-26T13:45:47.711Z,29.56